createdAt,value
2019-03-12T00:03:36.874Z,13.83
2019-03-12T00:08:44.990Z,15.07
2019-03-12T00:13:53.063Z,14.83
2019-03-12T00:19:07.568Z,14.97
2019-03-12T00:24:17.936Z,15.43
2019-03-12T00:29:24.713Z,16.37
2019-03-12T00:34:31.934Z,15.70
2019-03-12T00:39:42.065Z,15.27
2019-03-12T00:44:49.263Z,16.90
2019-03-12T00:49:55.354Z,14.70
2019-03-12T00:55:06.656Z,14.10
2019-03-12T01:00:14.961Z,15.80
2019-03-12T01:05:20.808Z,17.67
2019-03-12T01:10:26.746Z,12.17
2019-03-12T01:15:32.327Z,12.93
2019-03-12T01:20:37.785Z,12.10
2019-03-12T01:25:43.249Z,13.00
2019-03-12T01:30:48.720Z,11.47
2019-03-12T01:35:54.394Z,11.47
2019-03-12T01:40:59.861Z,9.70
2019-03-12T01:46:12.796Z,13.37
2019-03-12T01:51:19.249Z,10.20
2019-03-12T01:56:36.122Z,10.90
2019-03-12T02:01:46.493Z,10.20
2019-03-12T02:06:57.469Z,11.27
2019-03-12T02:12:12.520Z,11.17
2019-03-12T02:17:18.470Z,11.13
2019-03-12T02:22:24.000Z,15.07
2019-03-12T02:27:30.154Z,14.10
2019-03-12T02:32:35.835Z,16.70
2019-03-12T02:37:41.771Z,10.57
2019-03-12T02:42:48.567Z,13.17
2019-03-12T02:47:54.289Z,15.93
2019-03-12T02:53:00.016Z,11.23
2019-03-12T02:58:07.413Z,16.13
2019-03-12T03:03:12.977Z,11.63
2019-03-12T03:08:21.483Z,17.03
2019-03-12T03:13:34.876Z,18.30
2019-03-12T03:18:41.040Z,17.63
2019-03-12T03:23:47.967Z,17.73
2019-03-12T03:28:53.577Z,14.20
2019-03-12T03:33:59.247Z,19.20
2019-03-12T03:39:08.161Z,17.57
2019-03-12T03:44:16.463Z,17.13
2019-03-12T03:49:23.502Z,15.63
2019-03-12T03:54:29.282Z,17.57
2019-03-12T03:59:35.862Z,16.00
2019-03-12T04:04:41.499Z,15.07
2019-03-12T04:09:49.976Z,14.70
2019-03-12T04:14:57.849Z,18.20
2019-03-12T04:20:04.251Z,18.63
2019-03-12T04:25:10.186Z,20.37
2019-03-12T04:30:21.116Z,17.37
2019-03-12T04:35:30.080Z,13.90
2019-03-12T04:40:42.050Z,14.20
2019-03-12T04:45:48.348Z,14.07
2019-03-12T04:50:54.419Z,15.83
2019-03-12T04:56:00.125Z,12.80
2019-03-12T05:01:10.676Z,13.80
2019-03-12T05:06:19.499Z,16.20
2019-03-12T05:11:24.525Z,24.60
2019-03-12T05:16:30.272Z,30.77
2019-03-12T05:21:45.017Z,16.83
2019-03-12T05:26:54.239Z,16.70
2019-03-12T05:32:05.551Z,21.40
2019-03-12T05:37:11.236Z,17.80
2019-03-12T05:42:17.077Z,18.40
2019-03-12T05:47:23.167Z,16.40
2019-03-12T05:52:34.272Z,22.60
2019-03-12T05:57:43.996Z,26.03
2019-03-12T06:02:50.700Z,23.80
2019-03-12T06:07:58.804Z,19.43
2019-03-12T06:13:12.362Z,22.13
2019-03-12T06:18:29.261Z,15.70
2019-03-12T06:23:39.564Z,21.83
2019-03-12T06:28:46.874Z,20.50
2019-03-12T06:33:58.832Z,17.50
2019-03-12T06:39:14.659Z,20.70
2019-03-12T06:44:38.699Z,22.57
2019-03-12T06:49:59.276Z,19.00
2019-03-12T06:55:31.235Z,20.50
2019-03-12T07:01:20.614Z,14.77
2019-03-12T07:06:44.460Z,14.67
2019-03-12T07:12:36.766Z,13.27
2019-03-12T07:17:55.950Z,10.17
2019-03-12T07:23:27.727Z,10.33
2019-03-12T07:29:03.730Z,13.03
2019-03-12T07:34:36.245Z,10.33
2019-03-12T07:39:50.832Z,12.27
2019-03-12T07:45:20.423Z,14.67
2019-03-12T07:51:01.423Z,12.17
2019-03-12T07:56:42.229Z,8.20
2019-03-12T08:02:33.300Z,5.87
2019-03-12T08:08:04.138Z,6.40
2019-03-12T08:13:28.900Z,10.87
2019-03-12T08:18:53.289Z,7.80
2019-03-12T08:24:16.846Z,8.47
2019-03-12T08:29:41.413Z,8.23
2019-03-12T08:40:30.903Z,10.83
2019-03-12T08:46:06.588Z,8.30
2019-03-12T08:51:45.666Z,6.13
2019-03-12T08:57:14.452Z,7.10
2019-03-12T09:02:37.980Z,6.53
2019-03-12T09:08:04.312Z,6.60
2019-03-12T09:13:18.237Z,5.17
2019-03-12T09:18:43.041Z,7.13
2019-03-12T09:24:18.292Z,3.87
2019-03-12T09:29:33.855Z,3.00
2019-03-12T09:35:04.423Z,6.60
2019-03-12T09:40:27.360Z,5.03
2019-03-12T09:45:44.410Z,2.53
2019-03-12T09:51:07.657Z,5.33
2019-03-12T09:56:34.889Z,4.70
2019-03-12T10:02:09.308Z,4.10
2019-03-12T10:07:31.974Z,2.73
2019-03-12T10:12:57.800Z,5.80
2019-03-12T10:18:26.577Z,3.37
2019-03-12T10:23:52.136Z,2.60
2019-03-12T10:29:19.529Z,2.13
2019-03-12T10:34:43.801Z,3.23
2019-03-12T10:40:19.257Z,1.83
2019-03-12T10:45:28.955Z,2.53
2019-03-12T10:50:37.023Z,1.83
2019-03-12T10:55:42.664Z,2.10
2019-03-12T11:00:48.132Z,4.27
2019-03-12T11:05:53.979Z,1.73
2019-03-12T11:10:59.715Z,2.10
2019-03-12T11:16:08.100Z,1.73
2019-03-12T11:21:13.692Z,2.33
2019-03-12T11:26:19.705Z,2.70
2019-03-12T11:31:25.651Z,2.73
2019-03-12T11:36:31.835Z,3.47
2019-03-12T11:41:57.254Z,1.90
2019-03-12T11:47:04.989Z,15.87
2019-03-12T11:52:10.807Z,2.20
2019-03-12T11:57:22.525Z,4.00
2019-03-12T12:02:28.850Z,3.40
2019-03-12T12:07:36.227Z,1.93
2019-03-12T12:12:42.158Z,2.50
2019-03-12T12:17:49.487Z,2.00
2019-03-12T12:22:59.938Z,2.77
2019-03-12T12:28:10.653Z,4.43
2019-03-12T12:33:37.887Z,2.10
2019-03-12T12:38:44.143Z,4.03
2019-03-12T12:43:49.728Z,4.83
2019-03-12T12:48:56.333Z,3.17
2019-03-12T12:54:04.092Z,2.83
2019-03-12T12:59:10.315Z,2.80
2019-03-12T13:04:21.141Z,4.40
2019-03-12T13:09:26.943Z,3.70
2019-03-12T13:14:41.628Z,4.27
2019-03-12T13:19:46.136Z,4.37
2019-03-12T13:24:51.998Z,4.13
2019-03-12T13:30:05.465Z,3.90
2019-03-12T13:35:13.223Z,2.70
2019-03-12T13:40:20.541Z,1.70
2019-03-12T13:45:33.185Z,3.17
2019-03-12T13:50:40.991Z,2.07
2019-03-12T13:55:49.814Z,2.90
2019-03-12T14:01:09.428Z,2.87
2019-03-12T14:06:15.347Z,2.67
2019-03-12T14:11:24.283Z,4.20
2019-03-12T14:16:33.323Z,3.20
2019-03-12T14:21:43.154Z,3.90
2019-03-12T14:26:49.001Z,4.90
2019-03-12T14:31:54.533Z,2.20
2019-03-12T14:37:00.280Z,1.90
2019-03-12T14:42:09.975Z,1.50
2019-03-12T14:47:15.725Z,2.37
2019-03-12T14:52:36.103Z,1.63
2019-03-12T14:57:48.700Z,3.17
2019-03-12T15:02:55.555Z,1.50
2019-03-12T15:08:12.878Z,1.80
2019-03-12T15:13:19.100Z,2.30
2019-03-12T15:18:42.940Z,1.90
2019-03-12T15:23:59.016Z,1.90
2019-03-12T15:29:07.979Z,2.50
2019-03-12T15:34:18.387Z,2.47
2019-03-12T15:39:24.077Z,5.30
2019-03-12T15:44:35.241Z,2.20
2019-03-12T15:49:42.936Z,2.13
2019-03-12T15:54:49.403Z,2.87
2019-03-12T15:59:59.079Z,1.83
2019-03-12T16:05:11.307Z,2.30
2019-03-12T16:10:20.712Z,5.80
2019-03-12T16:15:30.298Z,9.53
2019-03-12T16:20:37.327Z,3.70
2019-03-12T16:25:48.323Z,5.73
2019-03-12T16:30:54.885Z,3.27
2019-03-12T16:36:07.946Z,2.87
2019-03-12T16:41:17.067Z,4.07
2019-03-12T16:46:25.886Z,5.00
2019-03-12T16:51:32.771Z,3.23
2019-03-12T16:56:45.583Z,7.10
2019-03-12T17:01:53.741Z,5.07
2019-03-12T17:06:59.581Z,4.97
2019-03-12T17:12:39.351Z,6.10
2019-03-12T17:17:32.131Z,4.90
2019-03-12T17:22:38.765Z,5.30
2019-03-12T17:27:44.528Z,8.17
2019-03-12T17:33:01.280Z,7.13
2019-03-12T17:38:18.466Z,4.67
2019-03-12T17:43:31.873Z,6.07
2019-03-12T17:48:40.648Z,13.20
2019-03-12T17:53:53.583Z,7.00
2019-03-12T17:59:10.414Z,4.70
2019-03-12T18:04:45.550Z,9.13
2019-03-12T18:09:53.195Z,5.40
2019-03-12T18:15:02.653Z,7.10
2019-03-12T18:20:20.346Z,9.30
2019-03-12T18:25:30.045Z,4.03
2019-03-12T18:30:40.952Z,5.00
2019-03-12T18:35:47.816Z,6.77
2019-03-12T18:41:07.732Z,11.30
2019-03-12T18:46:26.124Z,9.63
2019-03-12T18:51:34.715Z,6.07
2019-03-12T18:56:42.617Z,13.90
2019-03-12T19:01:55.368Z,10.30
2019-03-12T19:07:02.986Z,5.37
2019-03-12T19:12:11.365Z,5.03
2019-03-12T19:17:18.061Z,5.50
2019-03-12T19:22:34.314Z,7.07
2019-03-12T19:27:40.699Z,8.60
2019-03-12T19:32:55.638Z,4.50
2019-03-12T19:38:14.206Z,7.40
2019-03-12T19:43:26.955Z,4.07
2019-03-12T19:48:37.633Z,6.40
2019-03-12T19:53:48.358Z,3.77
2019-03-12T19:58:55.875Z,3.20
2019-03-12T20:04:08.230Z,5.07
2019-03-12T20:09:23.049Z,5.10
2019-03-12T20:15:04.512Z,4.37
2019-03-12T20:21:02.498Z,3.60
2019-03-12T20:26:58.242Z,4.57
2019-03-12T20:33:12.337Z,4.80
2019-03-12T20:39:06.826Z,5.43
2019-03-12T20:45:09.414Z,5.00
2019-03-12T20:50:50.806Z,3.40
2019-03-12T20:56:56.918Z,2.40
2019-03-12T21:02:52.765Z,6.47
2019-03-12T21:08:57.221Z,5.23
2019-03-12T21:14:36.505Z,3.60
2019-03-12T21:20:21.177Z,4.93
2019-03-12T21:26:05.461Z,6.13
2019-03-12T21:31:14.835Z,4.73
2019-03-12T21:36:19.870Z,3.57
2019-03-12T21:41:28.732Z,5.37
2019-03-12T21:46:34.717Z,6.63
2019-03-12T21:51:40.396Z,9.27
2019-03-12T21:56:46.418Z,7.17
2019-03-12T22:01:52.720Z,4.73
2019-03-12T22:06:58.968Z,9.83
2019-03-12T22:12:04.948Z,4.10
2019-03-12T22:17:12.713Z,6.60
2019-03-12T22:22:24.105Z,6.27
2019-03-12T22:27:29.628Z,3.73
2019-03-12T22:32:35.194Z,6.63
2019-03-12T22:37:40.883Z,5.40
2019-03-12T22:42:46.483Z,3.27
2019-03-12T22:47:52.875Z,6.47
2019-03-12T22:52:58.796Z,6.20
2019-03-12T22:58:06.302Z,3.53
2019-03-12T23:03:29.606Z,3.13
2019-03-12T23:08:53.153Z,3.77
2019-03-12T23:14:13.574Z,4.67
2019-03-12T23:19:20.416Z,2.03
2019-03-12T23:24:27.590Z,3.00
2019-03-12T23:29:33.198Z,2.63
2019-03-12T23:34:38.714Z,3.20
2019-03-12T23:39:44.717Z,4.10
2019-03-12T23:44:50.181Z,5.03
2019-03-12T23:49:55.775Z,4.73
2019-03-12T23:55:01.988Z,4.20
